sensor_id;sensor_type;location;lat;lon;timestamp;P1;durP1;ratioP1;P2;durP2;ratioP2
5058;SDS011;2548;52.050;11.036;2022-12-18T00:01:39;45.55;;;25.38;;
5058;SDS011;2548;52.050;11.036;2022-12-18T00:04:07;39.00;;;22.42;;
5058;SDS011;2548;52.050;11.036;2022-12-18T00:06:42;44.85;;;25.10;;
5058;SDS011;2548;52.050;11.036;2022-12-18T00:09:09;49.15;;;24.83;;
5058;SDS011;2548;52.050;11.036;2022-12-18T00:11:36;42.38;;;25.05;;
5058;SDS011;2548;52.050;11.036;2022-12-18T00:14:05;45.25;;;24.52;;
5058;SDS011;2548;52.050;11.036;2022-12-18T00:16:33;47.53;;;25.98;;
5058;SDS011;2548;52.050;11.036;2022-12-18T00:19:02;47.63;;;23.00;;
5058;SDS011;2548;52.050;11.036;2022-12-18T00:21:33;43.53;;;24.08;;
5058;SDS011;2548;52.050;11.036;2022-12-18T00:24:00;45.55;;;22.88;;
5058;SDS011;2548;52.050;11.036;2022-12-18T00:26:29;38.80;;;22.10;;
5058;SDS011;2548;52.050;11.036;2022-12-18T00:29:01;42.22;;;24.25;;
5058;SDS011;2548;52.050;11.036;2022-12-18T00:31:31;44.35;;;22.17;;
5058;SDS011;2548;52.050;11.036;2022-12-18T00:34:00;42.95;;;22.45;;
5058;SDS011;2548;52.050;11.036;2022-12-18T00:36:28;48.80;;;22.58;;
5058;SDS011;2548;52.050;11.036;2022-12-18T00:38:58;41.22;;;23.17;;
5058;SDS011;2548;52.050;11.036;2022-12-18T00:41:26;43.42;;;24.90;;
5058;SDS011;2548;52.050;11.036;2022-12-18T00:44:20;44.30;;;24.08;;
5058;SDS011;2548;52.050;11.036;2022-12-18T00:46:48;40.85;;;23.50;;
5058;SDS011;2548;52.050;11.036;2022-12-18T00:49:16;41.47;;;24.17;;
5058;SDS011;2548;52.050;11.036;2022-12-18T00:51:45;44.38;;;23.85;;
5058;SDS011;2548;52.050;11.036;2022-12-18T00:54:13;45.58;;;25.00;;
5058;SDS011;2548;52.050;11.036;2022-12-18T00:56:40;42.45;;;23.15;;
5058;SDS011;2548;52.050;11.036;2022-12-18T00:59:08;34.30;;;20.95;;
5058;SDS011;2548;52.050;11.036;2022-12-18T01:01:38;43.03;;;21.42;;
5058;SDS011;2548;52.050;11.036;2022-12-18T01:04:07;35.53;;;22.67;;
5058;SDS011;2548;52.050;11.036;2022-12-18T01:06:34;32.88;;;20.50;;
5058;SDS011;2548;52.050;11.036;2022-12-18T01:09:02;42.55;;;21.63;;
5058;SDS011;2548;52.050;11.036;2022-12-18T01:11:30;33.22;;;21.58;;
5058;SDS011;2548;52.050;11.036;2022-12-18T01:14:00;45.50;;;23.90;;
5058;SDS011;2548;52.050;11.036;2022-12-18T01:16:28;45.80;;;23.10;;
5058;SDS011;2548;52.050;11.036;2022-12-18T01:18:56;39.10;;;23.23;;
5058;SDS011;2548;52.050;11.036;2022-12-18T01:21:27;43.92;;;24.10;;
5058;SDS011;2548;52.050;11.036;2022-12-18T01:23:55;40.90;;;23.70;;
5058;SDS011;2548;52.050;11.036;2022-12-18T01:26:23;45.30;;;25.17;;
5058;SDS011;2548;52.050;11.036;2022-12-18T01:28:53;40.28;;;23.05;;
5058;SDS011;2548;52.050;11.036;2022-12-18T01:31:23;40.90;;;23.20;;
5058;SDS011;2548;52.050;11.036;2022-12-18T01:33:54;40.95;;;23.60;;
5058;SDS011;2548;52.050;11.036;2022-12-18T01:36:23;41.42;;;22.45;;
5058;SDS011;2548;52.050;11.036;2022-12-18T01:38:53;39.55;;;23.42;;
5058;SDS011;2548;52.050;11.036;2022-12-18T01:41:21;43.13;;;25.13;;
5058;SDS011;2548;52.050;11.036;2022-12-18T01:43:51;35.28;;;20.88;;
5058;SDS011;2548;52.050;11.036;2022-12-18T01:46:20;39.00;;;22.05;;
5058;SDS011;2548;52.050;11.036;2022-12-18T01:48:55;48.88;;;24.67;;
5058;SDS011;2548;52.050;11.036;2022-12-18T01:51:26;45.00;;;23.65;;
5058;SDS011;2548;52.050;11.036;2022-12-18T01:53:55;44.30;;;23.25;;
5058;SDS011;2548;52.050;11.036;2022-12-18T01:56:24;50.58;;;25.00;;
5058;SDS011;2548;52.050;11.036;2022-12-18T01:58:53;45.78;;;23.52;;
5058;SDS011;2548;52.050;11.036;2022-12-18T02:01:24;43.88;;;22.23;;
5058;SDS011;2548;52.050;11.036;2022-12-18T02:03:52;48.00;;;23.42;;
5058;SDS011;2548;52.050;11.036;2022-12-18T02:06:22;40.05;;;22.20;;
5058;SDS011;2548;52.050;11.036;2022-12-18T02:09:04;47.88;;;25.55;;
5058;SDS011;2548;52.050;11.036;2022-12-18T02:11:38;41.10;;;20.48;;
5058;SDS011;2548;52.050;11.036;2022-12-18T02:14:17;40.10;;;21.05;;
5058;SDS011;2548;52.050;11.036;2022-12-18T02:16:56;43.30;;;24.10;;
5058;SDS011;2548;52.050;11.036;2022-12-18T02:19:34;43.70;;;22.20;;
5058;SDS011;2548;52.050;11.036;2022-12-18T02:22:13;41.60;;;23.55;;
5058;SDS011;2548;52.050;11.036;2022-12-18T02:24:57;44.08;;;22.55;;
5058;SDS011;2548;52.050;11.036;2022-12-18T02:27:39;48.30;;;23.20;;
5058;SDS011;2548;52.050;11.036;2022-12-18T02:30:08;48.35;;;22.58;;
5058;SDS011;2548;52.050;11.036;2022-12-18T02:32:37;40.38;;;22.13;;
5058;SDS011;2548;52.050;11.036;2022-12-18T02:35:10;43.85;;;22.42;;
5058;SDS011;2548;52.050;11.036;2022-12-18T02:37:42;45.72;;;24.60;;
5058;SDS011;2548;52.050;11.036;2022-12-18T02:40:11;48.35;;;23.95;;
5058;SDS011;2548;52.050;11.036;2022-12-18T02:42:45;42.67;;;22.23;;
5058;SDS011;2548;52.050;11.036;2022-12-18T02:45:15;47.00;;;22.45;;
5058;SDS011;2548;52.050;11.036;2022-12-18T02:47:43;48.10;;;23.17;;
5058;SDS011;2548;52.050;11.036;2022-12-18T02:50:16;45.83;;;23.50;;
5058;SDS011;2548;52.050;11.036;2022-12-18T02:52:55;46.55;;;24.33;;
5058;SDS011;2548;52.050;11.036;2022-12-18T02:55:33;40.15;;;23.75;;
5058;SDS011;2548;52.050;11.036;2022-12-18T02:58:19;51.67;;;23.27;;
5058;SDS011;2548;52.050;11.036;2022-12-18T03:00:59;39.30;;;21.58;;
5058;SDS011;2548;52.050;11.036;2022-12-18T03:03:30;51.00;;;23.85;;
5058;SDS011;2548;52.050;11.036;2022-12-18T03:06:03;49.50;;;24.73;;
5058;SDS011;2548;52.050;11.036;2022-12-18T03:08:36;47.20;;;22.80;;
5058;SDS011;2548;52.050;11.036;2022-12-18T03:11:08;51.17;;;23.40;;
5058;SDS011;2548;52.050;11.036;2022-12-18T03:13:42;45.90;;;23.70;;
5058;SDS011;2548;52.050;11.036;2022-12-18T03:16:15;50.33;;;23.80;;
5058;SDS011;2548;52.050;11.036;2022-12-18T03:18:49;50.42;;;23.42;;
5058;SDS011;2548;52.050;11.036;2022-12-18T03:21:22;43.20;;;24.00;;
5058;SDS011;2548;52.050;11.036;2022-12-18T03:23:57;47.60;;;22.90;;
5058;SDS011;2548;52.050;11.036;2022-12-18T03:26:27;45.47;;;23.17;;
5058;SDS011;2548;52.050;11.036;2022-12-18T03:29:02;44.13;;;22.95;;
5058;SDS011;2548;52.050;11.036;2022-12-18T03:31:39;49.15;;;24.42;;
5058;SDS011;2548;52.050;11.036;2022-12-18T03:34:09;48.45;;;24.02;;
5058;SDS011;2548;52.050;11.036;2022-12-18T03:36:43;41.45;;;21.95;;
5058;SDS011;2548;52.050;11.036;2022-12-18T03:39:12;48.60;;;23.00;;
5058;SDS011;2548;52.050;11.036;2022-12-18T03:41:44;40.85;;;21.05;;
5058;SDS011;2548;52.050;11.036;2022-12-18T03:44:37;46.08;;;22.63;;
5058;SDS011;2548;52.050;11.036;2022-12-18T03:47:08;46.83;;;23.48;;
5058;SDS011;2548;52.050;11.036;2022-12-18T03:49:42;50.50;;;22.35;;
5058;SDS011;2548;52.050;11.036;2022-12-18T03:52:17;48.08;;;24.45;;
5058;SDS011;2548;52.050;11.036;2022-12-18T03:54:48;42.00;;;21.88;;
5058;SDS011;2548;52.050;11.036;2022-12-18T03:57:18;42.47;;;23.42;;
5058;SDS011;2548;52.050;11.036;2022-12-18T03:59:53;46.35;;;23.50;;
5058;SDS011;2548;52.050;11.036;2022-12-18T04:02:27;48.90;;;24.17;;
5058;SDS011;2548;52.050;11.036;2022-12-18T04:04:59;41.60;;;22.10;;
5058;SDS011;2548;52.050;11.036;2022-12-18T04:07:32;40.75;;;20.45;;
5058;SDS011;2548;52.050;11.036;2022-12-18T04:10:00;37.45;;;22.13;;
5058;SDS011;2548;52.050;11.036;2022-12-18T04:12:30;45.13;;;21.73;;
5058;SDS011;2548;52.050;11.036;2022-12-18T04:15:00;46.92;;;22.23;;
5058;SDS011;2548;52.050;11.036;2022-12-18T04:17:27;43.60;;;20.80;;
5058;SDS011;2548;52.050;11.036;2022-12-18T04:19:56;48.85;;;23.20;;
5058;SDS011;2548;52.050;11.036;2022-12-18T04:22:24;46.30;;;21.80;;
5058;SDS011;2548;52.050;11.036;2022-12-18T04:24:57;39.38;;;22.88;;
5058;SDS011;2548;52.050;11.036;2022-12-18T04:27:31;41.05;;;21.05;;
5058;SDS011;2548;52.050;11.036;2022-12-18T04:30:00;43.00;;;21.23;;
5058;SDS011;2548;52.050;11.036;2022-12-18T04:32:28;43.42;;;21.20;;
5058;SDS011;2548;52.050;11.036;2022-12-18T04:34:56;35.45;;;19.63;;
5058;SDS011;2548;52.050;11.036;2022-12-18T04:37:23;40.80;;;21.08;;
5058;SDS011;2548;52.050;11.036;2022-12-18T04:39:51;39.78;;;21.13;;
5058;SDS011;2548;52.050;11.036;2022-12-18T04:42:26;41.50;;;21.27;;
5058;SDS011;2548;52.050;11.036;2022-12-18T04:44:53;44.83;;;21.35;;
5058;SDS011;2548;52.050;11.036;2022-12-18T04:47:22;47.60;;;22.65;;
5058;SDS011;2548;52.050;11.036;2022-12-18T04:49:49;39.67;;;19.90;;
5058;SDS011;2548;52.050;11.036;2022-12-18T04:52:17;38.45;;;20.35;;
5058;SDS011;2548;52.050;11.036;2022-12-18T04:54:44;40.70;;;22.15;;
5058;SDS011;2548;52.050;11.036;2022-12-18T04:57:12;44.05;;;22.42;;
5058;SDS011;2548;52.050;11.036;2022-12-18T04:59:39;39.55;;;20.90;;
5058;SDS011;2548;52.050;11.036;2022-12-18T05:02:07;38.67;;;19.52;;
5058;SDS011;2548;52.050;11.036;2022-12-18T05:04:36;49.92;;;21.20;;
5058;SDS011;2548;52.050;11.036;2022-12-18T05:07:03;43.80;;;19.85;;
5058;SDS011;2548;52.050;11.036;2022-12-18T05:09:30;41.90;;;22.48;;
5058;SDS011;2548;52.050;11.036;2022-12-18T05:11:58;41.45;;;22.38;;
5058;SDS011;2548;52.050;11.036;2022-12-18T05:14:25;50.63;;;21.02;;
5058;SDS011;2548;52.050;11.036;2022-12-18T05:16:55;38.75;;;20.13;;
5058;SDS011;2548;52.050;11.036;2022-12-18T05:19:23;43.58;;;22.42;;
5058;SDS011;2548;52.050;11.036;2022-12-18T05:21:52;40.80;;;22.75;;
5058;SDS011;2548;52.050;11.036;2022-12-18T05:24:19;42.83;;;20.00;;
5058;SDS011;2548;52.050;11.036;2022-12-18T05:26:47;42.15;;;21.00;;
5058;SDS011;2548;52.050;11.036;2022-12-18T05:29:14;46.38;;;22.77;;
5058;SDS011;2548;52.050;11.036;2022-12-18T05:31:42;44.33;;;19.83;;
5058;SDS011;2548;52.050;11.036;2022-12-18T05:34:09;49.03;;;23.30;;
5058;SDS011;2548;52.050;11.036;2022-12-18T05:36:37;43.42;;;21.48;;
5058;SDS011;2548;52.050;11.036;2022-12-18T05:39:05;47.80;;;22.80;;
5058;SDS011;2548;52.050;11.036;2022-12-18T05:41:33;46.22;;;21.40;;
5058;SDS011;2548;52.050;11.036;2022-12-18T05:44:00;43.35;;;19.83;;
5058;SDS011;2548;52.050;11.036;2022-12-18T05:46:28;39.13;;;19.42;;
5058;SDS011;2548;52.050;11.036;2022-12-18T05:48:58;40.20;;;21.17;;
5058;SDS011;2548;52.050;11.036;2022-12-18T05:51:26;39.00;;;18.73;;
5058;SDS011;2548;52.050;11.036;2022-12-18T05:53:54;45.20;;;22.42;;
5058;SDS011;2548;52.050;11.036;2022-12-18T05:56:23;37.92;;;20.17;;
5058;SDS011;2548;52.050;11.036;2022-12-18T05:58:51;37.90;;;20.65;;
5058;SDS011;2548;52.050;11.036;2022-12-18T06:01:20;43.53;;;21.00;;
5058;SDS011;2548;52.050;11.036;2022-12-18T06:03:50;56.40;;;19.95;;
5058;SDS011;2548;52.050;11.036;2022-12-18T06:06:18;47.45;;;21.42;;
5058;SDS011;2548;52.050;11.036;2022-12-18T06:08:46;42.47;;;21.77;;
5058;SDS011;2548;52.050;11.036;2022-12-18T06:11:16;47.15;;;22.77;;
5058;SDS011;2548;52.050;11.036;2022-12-18T06:13:48;60.65;;;22.17;;
5058;SDS011;2548;52.050;11.036;2022-12-18T06:16:17;54.97;;;20.45;;
5058;SDS011;2548;52.050;11.036;2022-12-18T06:18:44;51.55;;;21.67;;
5058;SDS011;2548;52.050;11.036;2022-12-18T06:21:11;47.95;;;23.20;;
5058;SDS011;2548;52.050;11.036;2022-12-18T06:23:39;49.78;;;21.90;;
5058;SDS011;2548;52.050;11.036;2022-12-18T06:26:08;44.38;;;22.10;;
5058;SDS011;2548;52.050;11.036;2022-12-18T06:28:37;43.00;;;21.75;;
5058;SDS011;2548;52.050;11.036;2022-12-18T06:31:06;47.95;;;23.10;;
5058;SDS011;2548;52.050;11.036;2022-12-18T06:33:34;48.25;;;21.42;;
5058;SDS011;2548;52.050;11.036;2022-12-18T06:36:02;48.50;;;22.33;;
5058;SDS011;2548;52.050;11.036;2022-12-18T06:38:31;40.75;;;19.63;;
5058;SDS011;2548;52.050;11.036;2022-12-18T06:40:59;39.78;;;19.70;;
5058;SDS011;2548;52.050;11.036;2022-12-18T06:43:26;41.33;;;20.90;;
5058;SDS011;2548;52.050;11.036;2022-12-18T06:45:59;45.03;;;21.52;;
5058;SDS011;2548;52.050;11.036;2022-12-18T06:48:29;39.83;;;21.55;;
5058;SDS011;2548;52.050;11.036;2022-12-18T06:50:57;48.15;;;21.42;;
5058;SDS011;2548;52.050;11.036;2022-12-18T06:53:25;50.13;;;20.90;;
5058;SDS011;2548;52.050;11.036;2022-12-18T06:55:58;49.80;;;21.42;;
5058;SDS011;2548;52.050;11.036;2022-12-18T06:58:27;45.00;;;20.58;;
5058;SDS011;2548;52.050;11.036;2022-12-18T07:00:58;46.75;;;19.90;;
5058;SDS011;2548;52.050;11.036;2022-12-18T07:03:28;37.42;;;19.20;;
5058;SDS011;2548;52.050;11.036;2022-12-18T07:05:56;40.72;;;20.42;;
5058;SDS011;2548;52.050;11.036;2022-12-18T07:08:23;42.83;;;21.25;;
5058;SDS011;2548;52.050;11.036;2022-12-18T07:10:51;36.72;;;19.73;;
5058;SDS011;2548;52.050;11.036;2022-12-18T07:13:19;43.97;;;22.20;;
5058;SDS011;2548;52.050;11.036;2022-12-18T07:15:47;38.80;;;21.02;;
5058;SDS011;2548;52.050;11.036;2022-12-18T07:18:14;51.13;;;24.75;;
5058;SDS011;2548;52.050;11.036;2022-12-18T07:20:43;50.38;;;22.30;;
5058;SDS011;2548;52.050;11.036;2022-12-18T07:23:11;40.88;;;21.55;;
5058;SDS011;2548;52.050;11.036;2022-12-18T07:25:39;44.55;;;22.17;;
5058;SDS011;2548;52.050;11.036;2022-12-18T07:28:06;44.83;;;20.00;;
5058;SDS011;2548;52.050;11.036;2022-12-18T07:30:36;45.45;;;21.63;;
5058;SDS011;2548;52.050;11.036;2022-12-18T07:33:04;49.08;;;22.45;;
5058;SDS011;2548;52.050;11.036;2022-12-18T07:35:32;47.55;;;22.73;;
5058;SDS011;2548;52.050;11.036;2022-12-18T07:38:03;48.60;;;25.15;;
5058;SDS011;2548;52.050;11.036;2022-12-18T07:40:31;58.95;;;24.23;;
5058;SDS011;2548;52.050;11.036;2022-12-18T07:42:59;48.13;;;21.60;;
5058;SDS011;2548;52.050;11.036;2022-12-18T07:45:26;49.35;;;24.40;;
5058;SDS011;2548;52.050;11.036;2022-12-18T07:47:56;47.30;;;23.00;;
5058;SDS011;2548;52.050;11.036;2022-12-18T07:50:23;45.83;;;22.95;;
5058;SDS011;2548;52.050;11.036;2022-12-18T07:52:51;50.65;;;24.50;;
5058;SDS011;2548;52.050;11.036;2022-12-18T07:55:20;46.85;;;23.48;;
5058;SDS011;2548;52.050;11.036;2022-12-18T07:57:47;53.83;;;22.33;;
5058;SDS011;2548;52.050;11.036;2022-12-18T08:00:15;43.53;;;21.45;;
5058;SDS011;2548;52.050;11.036;2022-12-18T08:02:43;50.85;;;21.85;;
5058;SDS011;2548;52.050;11.036;2022-12-18T08:05:10;62.47;;;22.90;;
5058;SDS011;2548;52.050;11.036;2022-12-18T08:07:38;49.90;;;24.17;;
5058;SDS011;2548;52.050;11.036;2022-12-18T08:10:06;50.72;;;23.13;;
5058;SDS011;2548;52.050;11.036;2022-12-18T08:12:36;58.42;;;26.15;;
5058;SDS011;2548;52.050;11.036;2022-12-18T08:15:03;58.92;;;23.35;;
5058;SDS011;2548;52.050;11.036;2022-12-18T08:17:32;48.85;;;23.63;;
5058;SDS011;2548;52.050;11.036;2022-12-18T08:19:59;50.75;;;22.45;;
5058;SDS011;2548;52.050;11.036;2022-12-18T08:22:27;56.97;;;24.65;;
5058;SDS011;2548;52.050;11.036;2022-12-18T08:24:54;47.08;;;23.98;;
5058;SDS011;2548;52.050;11.036;2022-12-18T08:27:22;58.85;;;25.67;;
5058;SDS011;2548;52.050;11.036;2022-12-18T08:29:50;47.65;;;23.15;;
5058;SDS011;2548;52.050;11.036;2022-12-18T08:32:18;49.58;;;22.60;;
5058;SDS011;2548;52.050;11.036;2022-12-18T08:34:45;61.05;;;23.95;;
5058;SDS011;2548;52.050;11.036;2022-12-18T08:37:13;58.88;;;23.35;;
5058;SDS011;2548;52.050;11.036;2022-12-18T08:39:40;56.38;;;28.27;;
5058;SDS011;2548;52.050;11.036;2022-12-18T08:42:08;79.35;;;34.05;;
5058;SDS011;2548;52.050;11.036;2022-12-18T08:44:54;63.95;;;29.88;;
5058;SDS011;2548;52.050;11.036;2022-12-18T08:47:21;66.07;;;30.58;;
5058;SDS011;2548;52.050;11.036;2022-12-18T08:49:49;70.95;;;34.58;;
5058;SDS011;2548;52.050;11.036;2022-12-18T08:52:16;60.10;;;30.10;;
5058;SDS011;2548;52.050;11.036;2022-12-18T08:54:44;55.30;;;24.05;;
5058;SDS011;2548;52.050;11.036;2022-12-18T08:57:11;69.63;;;29.75;;
5058;SDS011;2548;52.050;11.036;2022-12-18T08:59:39;52.78;;;25.65;;
5058;SDS011;2548;52.050;11.036;2022-12-18T09:02:08;50.63;;;25.83;;
5058;SDS011;2548;52.050;11.036;2022-12-18T09:04:37;59.30;;;26.40;;
5058;SDS011;2548;52.050;11.036;2022-12-18T09:07:05;51.45;;;25.08;;
5058;SDS011;2548;52.050;11.036;2022-12-18T09:09:33;53.20;;;25.83;;
5058;SDS011;2548;52.050;11.036;2022-12-18T09:12:00;58.42;;;25.90;;
5058;SDS011;2548;52.050;11.036;2022-12-18T09:14:27;72.40;;;26.15;;
5058;SDS011;2548;52.050;11.036;2022-12-18T09:16:55;57.13;;;26.48;;
5058;SDS011;2548;52.050;11.036;2022-12-18T09:19:24;48.75;;;25.23;;
5058;SDS011;2548;52.050;11.036;2022-12-18T09:21:51;63.95;;;26.60;;
5058;SDS011;2548;52.050;11.036;2022-12-18T09:24:19;64.53;;;25.77;;
5058;SDS011;2548;52.050;11.036;2022-12-18T09:26:52;59.38;;;26.60;;
5058;SDS011;2548;52.050;11.036;2022-12-18T09:29:20;53.47;;;23.98;;
5058;SDS011;2548;52.050;11.036;2022-12-18T09:31:48;62.50;;;26.33;;
5058;SDS011;2548;52.050;11.036;2022-12-18T09:34:16;56.17;;;26.92;;
5058;SDS011;2548;52.050;11.036;2022-12-18T09:36:45;69.82;;;26.05;;
5058;SDS011;2548;52.050;11.036;2022-12-18T09:39:13;54.28;;;26.52;;
5058;SDS011;2548;52.050;11.036;2022-12-18T09:41:44;51.88;;;25.92;;
5058;SDS011;2548;52.050;11.036;2022-12-18T09:44:15;48.03;;;23.67;;
5058;SDS011;2548;52.050;11.036;2022-12-18T09:46:51;52.70;;;25.02;;
5058;SDS011;2548;52.050;11.036;2022-12-18T09:49:26;51.83;;;25.05;;
5058;SDS011;2548;52.050;11.036;2022-12-18T09:51:59;50.80;;;26.55;;
5058;SDS011;2548;52.050;11.036;2022-12-18T09:54:32;57.55;;;25.30;;
5058;SDS011;2548;52.050;11.036;2022-12-18T09:57:02;61.33;;;26.08;;
5058;SDS011;2548;52.050;11.036;2022-12-18T09:59:32;54.33;;;25.88;;
5058;SDS011;2548;52.050;11.036;2022-12-18T10:02:11;49.92;;;24.00;;
5058;SDS011;2548;52.050;11.036;2022-12-18T10:04:41;49.10;;;23.80;;
5058;SDS011;2548;52.050;11.036;2022-12-18T10:07:12;69.32;;;25.50;;
5058;SDS011;2548;52.050;11.036;2022-12-18T10:09:47;51.13;;;23.38;;
5058;SDS011;2548;52.050;11.036;2022-12-18T10:12:21;47.85;;;23.05;;
5058;SDS011;2548;52.050;11.036;2022-12-18T10:14:53;47.72;;;24.58;;
5058;SDS011;2548;52.050;11.036;2022-12-18T10:17:26;46.47;;;24.33;;
5058;SDS011;2548;52.050;11.036;2022-12-18T10:20:01;51.35;;;24.40;;
5058;SDS011;2548;52.050;11.036;2022-12-18T10:22:38;53.28;;;26.42;;
5058;SDS011;2548;52.050;11.036;2022-12-18T10:25:17;53.40;;;23.98;;
5058;SDS011;2548;52.050;11.036;2022-12-18T10:27:48;38.05;;;22.42;;
5058;SDS011;2548;52.050;11.036;2022-12-18T10:30:20;44.30;;;20.50;;
5058;SDS011;2548;52.050;11.036;2022-12-18T10:32:49;39.70;;;22.30;;
5058;SDS011;2548;52.050;11.036;2022-12-18T10:35:18;44.00;;;21.80;;
5058;SDS011;2548;52.050;11.036;2022-12-18T10:38:01;50.28;;;21.55;;
5058;SDS011;2548;52.050;11.036;2022-12-18T10:40:31;42.05;;;22.30;;
5058;SDS011;2548;52.050;11.036;2022-12-18T10:43:05;43.92;;;22.00;;
5058;SDS011;2548;52.050;11.036;2022-12-18T10:45:39;33.55;;;18.45;;
5058;SDS011;2548;52.050;11.036;2022-12-18T10:48:17;44.95;;;20.77;;
5058;SDS011;2548;52.050;11.036;2022-12-18T10:50:46;38.15;;;19.45;;
5058;SDS011;2548;52.050;11.036;2022-12-18T10:53:19;40.78;;;20.08;;
5058;SDS011;2548;52.050;11.036;2022-12-18T10:55:48;37.55;;;19.23;;
5058;SDS011;2548;52.050;11.036;2022-12-18T10:58:22;35.92;;;18.55;;
5058;SDS011;2548;52.050;11.036;2022-12-18T11:01:08;37.30;;;20.05;;
5058;SDS011;2548;52.050;11.036;2022-12-18T11:03:37;35.40;;;20.23;;
5058;SDS011;2548;52.050;11.036;2022-12-18T11:06:07;41.53;;;19.05;;
5058;SDS011;2548;52.050;11.036;2022-12-18T11:08:38;37.63;;;20.75;;
5058;SDS011;2548;52.050;11.036;2022-12-18T11:11:07;42.75;;;20.95;;
5058;SDS011;2548;52.050;11.036;2022-12-18T11:13:47;40.20;;;23.52;;
5058;SDS011;2548;52.050;11.036;2022-12-18T11:16:24;42.80;;;22.73;;
5058;SDS011;2548;52.050;11.036;2022-12-18T11:18:52;34.80;;;19.98;;
5058;SDS011;2548;52.050;11.036;2022-12-18T11:21:19;33.53;;;18.30;;
5058;SDS011;2548;52.050;11.036;2022-12-18T11:23:49;39.78;;;20.23;;
5058;SDS011;2548;52.050;11.036;2022-12-18T11:26:17;38.00;;;21.60;;
5058;SDS011;2548;52.050;11.036;2022-12-18T11:28:46;35.60;;;21.15;;
5058;SDS011;2548;52.050;11.036;2022-12-18T11:31:17;45.95;;;21.75;;
5058;SDS011;2548;52.050;11.036;2022-12-18T11:33:52;43.67;;;20.35;;
5058;SDS011;2548;52.050;11.036;2022-12-18T11:36:24;36.97;;;20.85;;
5058;SDS011;2548;52.050;11.036;2022-12-18T11:38:56;36.25;;;20.33;;
5058;SDS011;2548;52.050;11.036;2022-12-18T11:41:30;35.17;;;21.10;;
5058;SDS011;2548;52.050;11.036;2022-12-18T11:44:19;42.90;;;23.65;;
5058;SDS011;2548;52.050;11.036;2022-12-18T11:46:52;42.63;;;23.30;;
5058;SDS011;2548;52.050;11.036;2022-12-18T11:49:24;46.50;;;21.58;;
5058;SDS011;2548;52.050;11.036;2022-12-18T11:51:56;45.13;;;23.88;;
5058;SDS011;2548;52.050;11.036;2022-12-18T11:54:31;42.08;;;21.42;;
5058;SDS011;2548;52.050;11.036;2022-12-18T11:57:01;46.88;;;26.85;;
5058;SDS011;2548;52.050;11.036;2022-12-18T11:59:38;51.33;;;26.50;;
5058;SDS011;2548;52.050;11.036;2022-12-18T12:02:19;43.30;;;24.00;;
5058;SDS011;2548;52.050;11.036;2022-12-18T12:05:05;44.67;;;25.35;;
5058;SDS011;2548;52.050;11.036;2022-12-18T12:07:53;40.38;;;24.20;;
5058;SDS011;2548;52.050;11.036;2022-12-18T12:10:30;47.13;;;24.95;;
5058;SDS011;2548;52.050;11.036;2022-12-18T12:13:08;46.42;;;24.60;;
5058;SDS011;2548;52.050;11.036;2022-12-18T12:15:50;49.80;;;26.65;;
5058;SDS011;2548;52.050;11.036;2022-12-18T12:18:25;50.00;;;24.90;;
5058;SDS011;2548;52.050;11.036;2022-12-18T12:21:02;47.97;;;25.13;;
5058;SDS011;2548;52.050;11.036;2022-12-18T12:23:37;49.10;;;28.95;;
5058;SDS011;2548;52.050;11.036;2022-12-18T12:26:11;44.13;;;25.23;;
5058;SDS011;2548;52.050;11.036;2022-12-18T12:28:48;38.55;;;24.20;;
5058;SDS011;2548;52.050;11.036;2022-12-18T12:31:26;40.92;;;23.55;;
5058;SDS011;2548;52.050;11.036;2022-12-18T12:34:07;37.33;;;22.85;;
5058;SDS011;2548;52.050;11.036;2022-12-18T12:36:50;38.97;;;23.23;;
5058;SDS011;2548;52.050;11.036;2022-12-18T12:39:28;44.25;;;23.55;;
5058;SDS011;2548;52.050;11.036;2022-12-18T12:42:01;41.17;;;24.15;;
5058;SDS011;2548;52.050;11.036;2022-12-18T12:44:48;43.80;;;25.30;;
5058;SDS011;2548;52.050;11.036;2022-12-18T12:47:21;46.13;;;22.70;;
5058;SDS011;2548;52.050;11.036;2022-12-18T12:49:52;46.00;;;24.25;;
5058;SDS011;2548;52.050;11.036;2022-12-18T12:52:23;36.58;;;22.25;;
5058;SDS011;2548;52.050;11.036;2022-12-18T12:54:57;49.05;;;26.02;;
5058;SDS011;2548;52.050;11.036;2022-12-18T12:57:30;43.60;;;23.60;;
5058;SDS011;2548;52.050;11.036;2022-12-18T13:00:04;44.97;;;24.40;;
5058;SDS011;2548;52.050;11.036;2022-12-18T13:02:37;39.20;;;22.30;;
5058;SDS011;2548;52.050;11.036;2022-12-18T13:05:14;35.00;;;20.88;;
5058;SDS011;2548;52.050;11.036;2022-12-18T13:07:47;41.53;;;23.30;;
5058;SDS011;2548;52.050;11.036;2022-12-18T13:10:27;38.38;;;21.02;;
5058;SDS011;2548;52.050;11.036;2022-12-18T13:13:01;44.10;;;23.55;;
5058;SDS011;2548;52.050;11.036;2022-12-18T13:15:30;40.92;;;22.25;;
5058;SDS011;2548;52.050;11.036;2022-12-18T13:18:02;41.90;;;21.83;;
5058;SDS011;2548;52.050;11.036;2022-12-18T13:21:01;38.20;;;22.73;;
5058;SDS011;2548;52.050;11.036;2022-12-18T13:23:44;44.85;;;22.60;;
5058;SDS011;2548;52.050;11.036;2022-12-18T13:26:30;38.08;;;22.33;;
5058;SDS011;2548;52.050;11.036;2022-12-18T13:29:01;38.97;;;20.77;;
5058;SDS011;2548;52.050;11.036;2022-12-18T13:34:34;36.33;;;22.27;;
5058;SDS011;2548;52.050;11.036;2022-12-18T13:43:15;39.90;;;20.13;;
5058;SDS011;2548;52.050;11.036;2022-12-18T13:45:58;37.17;;;20.77;;
5058;SDS011;2548;52.050;11.036;2022-12-18T13:48:28;41.88;;;20.42;;
5058;SDS011;2548;52.050;11.036;2022-12-18T13:50:59;38.00;;;20.75;;
5058;SDS011;2548;52.050;11.036;2022-12-18T13:53:30;30.80;;;18.20;;
5058;SDS011;2548;52.050;11.036;2022-12-18T13:56:01;28.20;;;18.25;;
5058;SDS011;2548;52.050;11.036;2022-12-18T13:58:30;36.65;;;19.40;;
5058;SDS011;2548;52.050;11.036;2022-12-18T14:00:59;28.38;;;18.15;;
5058;SDS011;2548;52.050;11.036;2022-12-18T14:03:30;30.00;;;16.67;;
5058;SDS011;2548;52.050;11.036;2022-12-18T14:05:59;27.35;;;17.77;;
5058;SDS011;2548;52.050;11.036;2022-12-18T14:08:32;30.52;;;17.52;;
5058;SDS011;2548;52.050;11.036;2022-12-18T14:11:02;34.42;;;18.63;;
5058;SDS011;2548;52.050;11.036;2022-12-18T14:13:33;33.67;;;18.95;;
5058;SDS011;2548;52.050;11.036;2022-12-18T14:16:06;36.17;;;17.10;;
5058;SDS011;2548;52.050;11.036;2022-12-18T14:18:38;29.27;;;18.52;;
5058;SDS011;2548;52.050;11.036;2022-12-18T14:21:16;29.58;;;17.23;;
5058;SDS011;2548;52.050;11.036;2022-12-18T14:23:47;30.17;;;17.42;;
5058;SDS011;2548;52.050;11.036;2022-12-18T14:26:22;30.95;;;18.23;;
5058;SDS011;2548;52.050;11.036;2022-12-18T14:28:54;25.92;;;18.75;;
5058;SDS011;2548;52.050;11.036;2022-12-18T14:31:24;34.40;;;18.75;;
5058;SDS011;2548;52.050;11.036;2022-12-18T14:33:53;37.30;;;17.85;;
5058;SDS011;2548;52.050;11.036;2022-12-18T14:36:22;38.88;;;20.77;;
5058;SDS011;2548;52.050;11.036;2022-12-18T14:38:51;33.65;;;20.60;;
5058;SDS011;2548;52.050;11.036;2022-12-18T14:41:20;32.88;;;19.30;;
5058;SDS011;2548;52.050;11.036;2022-12-18T14:43:49;34.05;;;21.48;;
5058;SDS011;2548;52.050;11.036;2022-12-18T14:46:34;32.95;;;19.70;;
5058;SDS011;2548;52.050;11.036;2022-12-18T14:49:03;41.45;;;20.85;;
5058;SDS011;2548;52.050;11.036;2022-12-18T14:51:46;35.95;;;20.60;;
5058;SDS011;2548;52.050;11.036;2022-12-18T14:54:15;32.42;;;19.05;;
5058;SDS011;2548;52.050;11.036;2022-12-18T14:56:45;28.60;;;19.10;;
5058;SDS011;2548;52.050;11.036;2022-12-18T14:59:14;35.10;;;20.67;;
5058;SDS011;2548;52.050;11.036;2022-12-18T15:01:46;32.25;;;19.60;;
5058;SDS011;2548;52.050;11.036;2022-12-18T15:04:25;29.77;;;19.42;;
5058;SDS011;2548;52.050;11.036;2022-12-18T15:07:04;32.80;;;20.00;;